createdAt,value
2022-11-29T00:04:14.981Z,6.75
2022-11-29T00:09:17.211Z,6.75
2022-11-29T00:14:20.599Z,6.71
2022-11-29T00:19:22.980Z,6.69
2022-11-29T00:24:25.314Z,6.67
2022-11-29T00:29:28.289Z,6.71
2022-11-29T00:34:30.629Z,6.68
2022-11-29T00:39:32.922Z,6.67
2022-11-29T00:44:35.251Z,6.67
2022-11-29T00:49:37.578Z,6.68
2022-11-29T00:54:40.005Z,6.71
2022-11-29T00:59:42.324Z,6.70
2022-11-29T01:04:44.973Z,6.73
2022-11-29T01:09:47.489Z,6.78
2022-11-29T01:14:49.795Z,6.77
2022-11-29T01:19:52.147Z,6.81
2022-11-29T01:24:54.452Z,6.81
2022-11-29T01:29:56.783Z,6.95
2022-11-29T01:34:59.094Z,6.99
2022-11-29T01:40:01.458Z,7.05
2022-11-29T01:45:24.158Z,7.01
2022-11-29T01:50:26.482Z,6.96
2022-11-29T01:55:29.309Z,6.93
2022-11-29T02:00:31.781Z,6.96
2022-11-29T02:05:34.207Z,6.91
2022-11-29T02:10:57.408Z,6.93
2022-11-29T02:16:25.077Z,6.90
2022-11-29T02:22:10.537Z,6.92
2022-11-29T02:27:41.349Z,6.91
2022-11-29T02:33:04.891Z,6.92
2022-11-29T02:38:45.059Z,6.93
2022-11-29T02:43:55.490Z,6.92
2022-11-29T02:49:35.878Z,6.90
2022-11-29T02:55:03.142Z,6.92
2022-11-29T03:00:37.883Z,6.86
2022-11-29T03:06:15.922Z,6.88
2022-11-29T03:11:46.868Z,6.94
2022-11-29T03:16:58.048Z,6.86
2022-11-29T03:22:39.231Z,6.91
2022-11-29T03:27:48.089Z,6.87
2022-11-29T03:33:12.108Z,6.85
2022-11-29T03:38:21.753Z,6.86
2022-11-29T03:43:35.143Z,6.88
2022-11-29T03:48:45.849Z,6.84
2022-11-29T03:54:00.031Z,6.95
2022-11-29T03:59:30.178Z,6.86
2022-11-29T04:04:54.273Z,6.85
2022-11-29T04:10:05.212Z,6.80
2022-11-29T04:15:10.465Z,6.79
2022-11-29T04:20:48.909Z,6.77
2022-11-29T04:26:33.591Z,6.84
2022-11-29T04:31:47.667Z,6.83
2022-11-29T04:37:06.569Z,6.89
2022-11-29T04:42:29.107Z,6.90
2022-11-29T04:47:37.698Z,6.87
2022-11-29T04:53:01.468Z,6.87
2022-11-29T04:58:16.990Z,6.85
2022-11-29T05:03:41.392Z,6.83
2022-11-29T05:08:50.895Z,6.78
2022-11-29T05:13:58.892Z,6.83
2022-11-29T05:19:35.108Z,6.81
2022-11-29T05:24:46.578Z,6.77
2022-11-29T05:30:11.348Z,6.82
2022-11-29T05:35:50.890Z,6.73
2022-11-29T05:41:17.153Z,6.65
2022-11-29T05:46:49.485Z,6.63
2022-11-29T05:52:23.020Z,6.64
2022-11-29T05:57:43.387Z,6.60
2022-11-29T06:02:56.441Z,6.64
2022-11-29T06:08:23.144Z,6.62
2022-11-29T06:13:38.269Z,6.60
2022-11-29T06:19:05.419Z,6.62
2022-11-29T06:24:38.087Z,6.66
2022-11-29T06:29:58.135Z,6.52
2022-11-29T06:35:24.062Z,6.52
2022-11-29T06:40:26.696Z,6.48
2022-11-29T06:45:29.236Z,6.41
2022-11-29T06:50:57.706Z,6.43
2022-11-29T06:56:28.863Z,6.53
2022-11-29T07:01:51.524Z,6.37
2022-11-29T07:06:54.130Z,6.34
2022-11-29T07:11:56.723Z,6.40
2022-11-29T07:17:13.067Z,6.29
2022-11-29T07:22:50.879Z,6.26
2022-11-29T07:28:16.474Z,6.38
2022-11-29T07:33:21.098Z,6.26
2022-11-29T07:38:32.455Z,6.20
2022-11-29T07:43:46.799Z,6.26
2022-11-29T07:48:49.150Z,6.23
2022-11-29T07:53:51.475Z,6.26
2022-11-29T07:58:53.830Z,6.27
2022-11-29T08:03:56.209Z,6.30
2022-11-29T08:08:59.392Z,6.37
2022-11-29T08:14:03.461Z,6.34
2022-11-29T08:19:05.829Z,6.39
2022-11-29T08:24:08.395Z,6.44
2022-11-29T08:29:10.781Z,6.40
2022-11-29T08:34:13.100Z,6.57
2022-11-29T08:39:15.564Z,6.55
2022-11-29T08:44:17.851Z,6.56
2022-11-29T08:49:20.196Z,6.58
2022-11-29T08:54:22.479Z,6.69
2022-11-29T08:59:24.865Z,6.80
2022-11-29T09:04:27.207Z,6.78
2022-11-29T09:09:29.523Z,6.85
2022-11-29T09:14:31.995Z,6.91
2022-11-29T09:19:34.319Z,6.92
2022-11-29T09:24:36.710Z,7.01
2022-11-29T09:29:39.095Z,7.06
2022-11-29T09:34:41.477Z,7.04
2022-11-29T09:39:43.791Z,7.09
2022-11-29T09:45:14.552Z,7.09
2022-11-29T09:50:34.316Z,7.16
2022-11-29T09:55:49.262Z,7.24
2022-11-29T10:01:03.388Z,7.32
2022-11-29T10:06:26.885Z,7.29
2022-11-29T10:11:38.458Z,7.43
2022-11-29T10:16:46.759Z,7.40
2022-11-29T10:21:58.964Z,7.49
2022-11-29T10:27:01.664Z,7.47
2022-11-29T10:32:12.923Z,7.52
2022-11-29T10:37:21.419Z,7.68
2022-11-29T10:42:26.692Z,7.77
2022-11-29T10:47:29.283Z,7.66
2022-11-29T10:52:31.679Z,7.77
2022-11-29T10:57:34.008Z,7.80
2022-11-29T11:02:36.956Z,7.78
2022-11-29T11:07:39.489Z,7.85
2022-11-29T11:13:01.615Z,7.75
2022-11-29T11:18:06.783Z,7.76
2022-11-29T11:23:25.661Z,7.69
2022-11-29T11:28:43.680Z,7.85
2022-11-29T11:33:46.359Z,7.82
2022-11-29T11:38:56.504Z,7.87
2022-11-29T11:44:00.177Z,7.94
2022-11-29T11:49:02.544Z,7.94
2022-11-29T11:54:05.868Z,7.96
2022-11-29T11:59:16.395Z,7.97
2022-11-29T12:04:30.504Z,8.04
2022-11-29T12:09:32.842Z,8.08
2022-11-29T12:15:06.125Z,8.08
2022-11-29T12:20:32.867Z,8.05
2022-11-29T12:25:41.092Z,8.02
2022-11-29T12:31:12.348Z,8.07
2022-11-29T12:36:30.979Z,8.16
2022-11-29T12:41:49.511Z,8.12
2022-11-29T12:47:35.731Z,8.20
2022-11-29T12:53:05.769Z,8.18
2022-11-29T12:58:25.436Z,8.02
2022-11-29T13:03:56.924Z,7.92
2022-11-29T13:09:22.239Z,7.77
2022-11-29T13:14:44.213Z,7.68
2022-11-29T13:19:55.578Z,7.51
2022-11-29T13:25:01.723Z,7.43
2022-11-29T13:30:05.320Z,7.41
2022-11-29T13:35:42.611Z,7.46
2022-11-29T13:41:04.980Z,7.45
2022-11-29T13:46:42.407Z,7.37
2022-11-29T13:51:45.937Z,7.35
2022-11-29T13:56:48.354Z,7.31
2022-11-29T14:01:52.698Z,7.29
2022-11-29T14:07:09.575Z,7.22
2022-11-29T14:12:28.669Z,7.16
2022-11-29T14:17:46.880Z,7.18
2022-11-29T14:23:04.445Z,7.11
2022-11-29T14:28:28.481Z,6.94
2022-11-29T14:33:52.453Z,6.81
2022-11-29T14:39:18.860Z,6.70
2022-11-29T14:44:29.129Z,6.52
2022-11-29T14:49:39.747Z,6.43
2022-11-29T14:54:58.564Z,6.35
2022-11-29T15:00:01.721Z,6.30
2022-11-29T15:05:20.848Z,6.29
2022-11-29T15:10:28.437Z,6.24
2022-11-29T15:15:42.647Z,6.12
2022-11-29T15:21:14.562Z,6.00
2022-11-29T15:26:19.974Z,5.96
2022-11-29T15:31:22.381Z,5.89
2022-11-29T15:36:24.934Z,5.87
2022-11-29T15:41:30.081Z,5.83
2022-11-29T15:46:35.990Z,5.75
2022-11-29T15:51:39.361Z,5.67
2022-11-29T15:56:53.554Z,5.65
2022-11-29T16:01:59.463Z,5.63
2022-11-29T16:07:04.672Z,5.60
2022-11-29T16:12:18.177Z,5.56
2022-11-29T16:17:20.774Z,5.55
2022-11-29T16:22:24.211Z,5.56
2022-11-29T16:27:26.648Z,5.57
2022-11-29T16:32:41.527Z,5.54
2022-11-29T16:37:45.416Z,5.50
2022-11-29T16:43:21.851Z,5.50
2022-11-29T16:48:24.128Z,5.38
2022-11-29T16:53:35.076Z,5.38
2022-11-29T16:59:17.188Z,5.38
2022-11-29T17:04:00.857Z,5.39
2022-11-29T17:09:04.437Z,5.36
2022-11-29T17:14:08.371Z,5.37
2022-11-29T17:19:12.758Z,5.38
2022-11-29T17:24:17.338Z,5.40
2022-11-29T17:29:19.826Z,5.38
2022-11-29T17:34:22.240Z,5.35
2022-11-29T17:39:24.671Z,5.31
2022-11-29T17:44:27.008Z,5.24
2022-11-29T17:49:29.352Z,5.22
2022-11-29T17:54:31.791Z,5.24
2022-11-29T17:59:34.121Z,5.26
2022-11-29T18:04:36.424Z,5.23
2022-11-29T18:09:38.744Z,5.19
2022-11-29T18:14:41.093Z,5.22
2022-11-29T18:19:43.546Z,5.21
2022-11-29T18:24:45.886Z,5.24
2022-11-29T18:29:48.473Z,5.25
2022-11-29T18:34:50.937Z,5.22
2022-11-29T18:39:53.279Z,5.23
2022-11-29T18:44:58.868Z,5.25
2022-11-29T18:50:01.367Z,5.24
2022-11-29T18:55:03.920Z,5.22
2022-11-29T19:00:07.018Z,5.21
2022-11-29T19:05:09.503Z,5.21
2022-11-29T19:10:12.071Z,5.22
2022-11-29T19:15:14.461Z,5.23
2022-11-29T19:20:16.845Z,5.22
2022-11-29T19:25:19.181Z,5.21
2022-11-29T19:30:21.519Z,5.23
2022-11-29T19:35:23.854Z,5.20
2022-11-29T19:40:26.330Z,5.23
2022-11-29T19:45:28.644Z,5.25
2022-11-29T19:50:30.994Z,5.25
2022-11-29T19:55:33.346Z,5.29
2022-11-29T20:00:35.672Z,5.29
2022-11-29T20:05:38.030Z,5.22
2022-11-29T20:10:40.336Z,5.21
2022-11-29T20:15:42.730Z,5.18
2022-11-29T20:20:45.077Z,5.20
2022-11-29T20:25:50.284Z,5.16
2022-11-29T20:30:53.053Z,5.11
2022-11-29T20:36:25.052Z,5.05
2022-11-29T20:41:45.363Z,4.99
2022-11-29T20:46:47.972Z,4.92
2022-11-29T20:52:02.329Z,5.00
2022-11-29T20:57:04.696Z,4.95
2022-11-29T21:02:07.032Z,4.95
2022-11-29T21:07:09.335Z,4.95
2022-11-29T21:12:12.280Z,4.94
2022-11-29T21:17:15.143Z,4.94
2022-11-29T21:22:28.054Z,4.91
2022-11-29T21:27:34.404Z,4.89
2022-11-29T21:32:36.964Z,4.86
2022-11-29T21:37:39.406Z,4.85
2022-11-29T21:42:41.877Z,4.93
2022-11-29T21:47:44.791Z,4.93
2022-11-29T21:52:50.578Z,4.94
2022-11-29T21:57:52.917Z,4.98
2022-11-29T22:02:56.288Z,4.93
2022-11-29T22:07:58.722Z,4.93
2022-11-29T22:13:01.059Z,4.92
2022-11-29T22:18:03.550Z,4.93
2022-11-29T22:23:05.923Z,5.00
2022-11-29T22:28:08.208Z,4.93
2022-11-29T22:33:13.419Z,4.92
2022-11-29T22:38:16.047Z,4.95
2022-11-29T22:43:18.342Z,4.95
2022-11-29T22:48:20.644Z,4.96
2022-11-29T22:53:22.943Z,4.92
2022-11-29T22:58:25.472Z,4.91
2022-11-29T23:03:27.958Z,4.91
2022-11-29T23:08:30.455Z,4.87
2022-11-29T23:13:34.931Z,4.91
2022-11-29T23:18:37.679Z,4.88
2022-11-29T23:23:40.345Z,4.87
2022-11-29T23:28:42.666Z,4.86
2022-11-29T23:33:45.493Z,4.86
2022-11-29T23:38:47.938Z,4.84
2022-11-29T23:43:50.368Z,4.84
2022-11-29T23:48:52.840Z,4.88
2022-11-29T23:53:55.173Z,4.86
2022-11-29T23:58:57.489Z,4.95
